createdAt,value
2018-12-04T00:04:54.000Z,44.6
2018-12-04T00:14:54.000Z,44.3
2018-12-04T00:24:54.000Z,44
2018-12-04T00:44:54.000Z,44.2
2018-12-04T00:54:55.000Z,44.1
2018-12-04T01:04:54.000Z,44.4
2018-12-04T01:14:54.000Z,44.2
2018-12-04T01:24:55.000Z,44.5
2018-12-04T01:34:55.000Z,44.6
2018-12-04T01:44:55.000Z,44
2018-12-04T01:54:55.000Z,43.6
2018-12-04T02:04:55.000Z,44
2018-12-04T02:14:55.000Z,43.8
2018-12-04T02:24:55.000Z,44.2
2018-12-04T02:34:55.000Z,43.9
2018-12-04T02:44:55.000Z,44.1
2018-12-04T02:54:55.000Z,44.1
2018-12-04T03:04:55.000Z,43.7
2018-12-04T03:14:55.000Z,43.7
2018-12-04T03:24:55.000Z,43.6
2018-12-04T03:34:55.000Z,43.1
2018-12-04T03:44:55.000Z,43.1
2018-12-04T03:54:55.000Z,43
2018-12-04T04:04:55.000Z,42.8
2018-12-04T04:14:55.000Z,42.8
2018-12-04T04:24:55.000Z,42.3
2018-12-04T04:34:55.000Z,42.6
2018-12-04T04:44:55.000Z,41.6
2018-12-04T04:54:55.000Z,41.4
2018-12-04T05:04:55.000Z,40.9
2018-12-04T05:14:55.000Z,40.8
2018-12-04T05:24:55.000Z,40.6
2018-12-04T05:34:56.000Z,40.2
2018-12-04T05:44:55.000Z,40.3
2018-12-04T05:54:55.000Z,40.5
2018-12-04T06:04:55.000Z,40.1
2018-12-04T06:14:55.000Z,39.9
2018-12-04T06:24:55.000Z,39.9
2018-12-04T06:34:55.000Z,39.7
2018-12-04T06:44:55.000Z,39.4
2018-12-04T06:54:55.000Z,39.2
2018-12-04T07:04:55.000Z,46.1
2018-12-04T07:14:55.000Z,48.1
2018-12-04T07:34:55.000Z,49.5
2018-12-04T07:44:55.000Z,49.9
2018-12-04T07:54:56.000Z,50.1
2018-12-04T08:04:55.000Z,50.1
2018-12-04T08:14:55.000Z,50
2018-12-04T08:24:56.000Z,50.3
2018-12-04T08:34:56.000Z,50
2018-12-04T08:44:56.000Z,50.3
2018-12-04T08:54:56.000Z,50.3
2018-12-04T09:04:56.000Z,50.5
2018-12-04T09:14:56.000Z,50.7
2018-12-04T09:24:56.000Z,50.9
2018-12-04T09:34:56.000Z,51
2018-12-04T09:44:56.000Z,51.2
2018-12-04T09:54:56.000Z,51.2
2018-12-04T10:04:56.000Z,51.4
2018-12-04T10:14:56.000Z,51.5
2018-12-04T10:24:56.000Z,51.5
2018-12-04T10:34:56.000Z,51.6
2018-12-04T10:44:56.000Z,51.7
2018-12-04T10:54:56.000Z,51.8
2018-12-04T11:04:56.000Z,51.9
2018-12-04T11:14:56.000Z,52
2018-12-04T11:24:56.000Z,52
2018-12-04T11:34:56.000Z,52.1
2018-12-04T11:44:56.000Z,52.2
2018-12-04T11:54:56.000Z,52.2
2018-12-04T12:04:56.000Z,52.2
2018-12-04T12:14:56.000Z,52.3
2018-12-04T12:24:56.000Z,52.3
2018-12-04T12:34:56.000Z,52.3
2018-12-04T12:44:56.000Z,52.3
2018-12-04T12:54:56.000Z,52.4
2018-12-04T13:04:56.000Z,52.3
2018-12-04T13:14:56.000Z,52.3
2018-12-04T13:24:56.000Z,52.4
2018-12-04T13:34:56.000Z,52.3
2018-12-04T13:44:56.000Z,52.3
2018-12-04T13:54:56.000Z,52.3
2018-12-04T14:04:57.000Z,52.3
2018-12-04T14:14:56.000Z,52.5
2018-12-04T14:24:56.000Z,52.5
2018-12-04T14:34:56.000Z,52.3
2018-12-04T14:44:56.000Z,52.1
2018-12-04T14:54:56.000Z,52.3
2018-12-04T15:04:56.000Z,52.3
2018-12-04T15:14:57.000Z,52.4
2018-12-04T15:24:57.000Z,52.3
2018-12-04T15:34:57.000Z,52.3
2018-12-04T15:44:57.000Z,52.2
2018-12-04T15:54:57.000Z,51.8
2018-12-04T16:04:57.000Z,51.7
2018-12-04T16:14:57.000Z,51.8
2018-12-04T16:24:57.000Z,51.6
2018-12-04T16:34:57.000Z,51.6
2018-12-04T16:44:57.000Z,51.8
2018-12-04T16:54:57.000Z,52.7
2018-12-04T17:04:57.000Z,54
2018-12-04T17:14:57.000Z,52.9
2018-12-04T17:24:57.000Z,52.7
2018-12-04T17:34:57.000Z,53.2
2018-12-04T17:44:57.000Z,53.3
2018-12-04T17:54:57.000Z,53.6
2018-12-04T18:04:57.000Z,53.7
2018-12-04T18:14:57.000Z,53.7
2018-12-04T18:24:57.000Z,52.9
2018-12-04T18:34:57.000Z,52.7
2018-12-04T18:44:57.000Z,52.7
2018-12-04T18:54:57.000Z,52.5
2018-12-04T19:04:57.000Z,52.4
2018-12-04T19:14:57.000Z,52.4
2018-12-04T19:24:59.000Z,52.3
2018-12-04T19:34:57.000Z,52.2
2018-12-04T19:44:57.000Z,52
2018-12-04T19:54:57.000Z,52
2018-12-04T20:04:57.000Z,52.1
2018-12-04T20:14:57.000Z,51.9
2018-12-04T20:24:57.000Z,51.9
2018-12-04T20:34:57.000Z,51.8
2018-12-04T20:44:57.000Z,51.7
2018-12-04T20:54:57.000Z,51.6
2018-12-04T21:04:58.000Z,51.6
2018-12-04T21:14:57.000Z,51.4
2018-12-04T21:24:57.000Z,51.8
2018-12-04T21:34:57.000Z,52.5
2018-12-04T21:44:57.000Z,52.8
2018-12-04T21:54:58.000Z,52.2
2018-12-04T22:04:57.000Z,53.2
2018-12-04T22:14:58.000Z,54.1
2018-12-04T22:24:58.000Z,46.3
2018-12-04T22:34:58.000Z,37.5
2018-12-04T22:44:58.000Z,36.9
2018-12-04T22:54:58.000Z,36.9
2018-12-04T23:04:58.000Z,36.7
2018-12-04T23:14:58.000Z,36.5
2018-12-04T23:24:58.000Z,36.6
2018-12-04T23:34:58.000Z,36.5
2018-12-04T23:44:58.000Z,36.3
2018-12-04T23:54:58.000Z,36.3
